sensor_id;sensor_type;location;lat;lon;timestamp;pressure;altitude;pressure_sealevel;temperature
67515;BMP280;60646;55.802;37.032;2023-10-13T00:02:02;98326.53;;;14.18
67515;BMP280;60646;55.802;37.032;2023-10-13T00:04:56;98327.09;;;14.24
67515;BMP280;60646;55.802;37.032;2023-10-13T00:07:22;98306.31;;;14.01
67515;BMP280;60646;55.802;37.032;2023-10-13T00:09:49;98309.19;;;14.03
67515;BMP280;60646;55.802;37.032;2023-10-13T00:12:15;98311.69;;;14.01
67515;BMP280;60646;55.802;37.032;2023-10-13T00:14:41;98301.50;;;14.00
67515;BMP280;60646;55.802;37.032;2023-10-13T00:17:07;98333.16;;;14.17
67515;BMP280;60646;55.802;37.032;2023-10-13T00:19:35;98338.91;;;14.21
67515;BMP280;60646;55.802;37.032;2023-10-13T00:22:10;98321.72;;;14.08
67515;BMP280;60646;55.802;37.032;2023-10-13T00:24:42;98338.00;;;14.26
67515;BMP280;60646;55.802;37.032;2023-10-13T00:27:14;98324.97;;;14.15
67515;BMP280;60646;55.802;37.032;2023-10-13T00:30:04;98315.09;;;14.09
67515;BMP280;60646;55.802;37.032;2023-10-13T00:32:44;98342.13;;;14.27
67515;BMP280;60646;55.802;37.032;2023-10-13T00:35:11;98315.59;;;14.15
67515;BMP280;60646;55.802;37.032;2023-10-13T00:37:39;98312.41;;;14.09
67515;BMP280;60646;55.802;37.032;2023-10-13T00:40:11;98327.44;;;14.12
67515;BMP280;60646;55.802;37.032;2023-10-13T00:42:53;98318.50;;;14.10
67515;BMP280;60646;55.802;37.032;2023-10-13T00:45:19;98317.06;;;14.09
67515;BMP280;60646;55.802;37.032;2023-10-13T00:47:45;98322.28;;;14.15
67515;BMP280;60646;55.802;37.032;2023-10-13T00:50:16;98324.94;;;14.07
67515;BMP280;60646;55.802;37.032;2023-10-13T00:52:46;98310.28;;;14.00
67515;BMP280;60646;55.802;37.032;2023-10-13T00:55:13;98333.16;;;14.17
67515;BMP280;60646;55.802;37.032;2023-10-13T00:57:41;98325.66;;;14.07
67515;BMP280;60646;55.802;37.032;2023-10-13T01:00:07;98324.94;;;14.07
67515;BMP280;60646;55.802;37.032;2023-10-13T01:02:50;98348.19;;;14.20
67515;BMP280;60646;55.802;37.032;2023-10-13T01:05:25;98371.63;;;14.34
67515;BMP280;60646;55.802;37.032;2023-10-13T01:07:51;98347.81;;;14.15
67515;BMP280;60646;55.802;37.032;2023-10-13T01:10:21;98336.03;;;14.03
67515;BMP280;60646;55.802;37.032;2023-10-13T01:12:52;98370.22;;;14.26
67515;BMP280;60646;55.802;37.032;2023-10-13T01:15:19;98362.91;;;14.19
67515;BMP280;60646;55.802;37.032;2023-10-13T01:17:48;98356.09;;;14.10
67515;BMP280;60646;55.802;37.032;2023-10-13T01:20:15;98350.72;;;14.10
67515;BMP280;60646;55.802;37.032;2023-10-13T01:22:51;98341.03;;;13.99
67515;BMP280;60646;55.802;37.032;2023-10-13T01:25:24;98367.72;;;14.20
67515;BMP280;60646;55.802;37.032;2023-10-13T01:27:54;98362.56;;;14.15
67515;BMP280;60646;55.802;37.032;2023-10-13T01:30:20;98349.28;;;14.09
67515;BMP280;60646;55.802;37.032;2023-10-13T01:32:52;98369.50;;;14.25
67515;BMP280;60646;55.802;37.032;2023-10-13T01:35:20;98356.81;;;14.18
67515;BMP280;60646;55.802;37.032;2023-10-13T01:37:51;98353.56;;;14.12
67515;BMP280;60646;55.802;37.032;2023-10-13T01:40:17;98366.81;;;14.18
67515;BMP280;60646;55.802;37.032;2023-10-13T01:42:46;98371.13;;;14.21
67515;BMP280;60646;55.802;37.032;2023-10-13T01:45:12;98373.81;;;14.21
67515;BMP280;60646;55.802;37.032;2023-10-13T01:47:40;98373.28;;;14.15
67515;BMP280;60646;55.802;37.032;2023-10-13T01:50:07;98398.88;;;14.31
67515;BMP280;60646;55.802;37.032;2023-10-13T01:52:40;98381.88;;;14.21
67515;BMP280;60646;55.802;37.032;2023-10-13T01:55:08;98399.41;;;14.29
67515;BMP280;60646;55.802;37.032;2023-10-13T01:57:36;98386.72;;;14.15
67515;BMP280;60646;55.802;37.032;2023-10-13T02:00:03;98379.34;;;14.07
67515;BMP280;60646;55.802;37.032;2023-10-13T02:02:47;98410.50;;;14.26
67515;BMP280;60646;55.802;37.032;2023-10-13T02:05:16;98394.78;;;14.15
67515;BMP280;60646;55.802;37.032;2023-10-13T02:07:43;98391.50;;;14.16
67515;BMP280;60646;55.802;37.032;2023-10-13T02:10:12;98407.66;;;14.24
67515;BMP280;60646;55.802;37.032;2023-10-13T02:12:41;98382.03;;;14.07
67515;BMP280;60646;55.802;37.032;2023-10-13T02:15:15;98368.78;;;13.94
67515;BMP280;60646;55.802;37.032;2023-10-13T02:17:47;98361.63;;;13.89
67515;BMP280;60646;55.802;37.032;2023-10-13T02:20:18;98380.06;;;14.00
67515;BMP280;60646;55.802;37.032;2023-10-13T02:22:44;98384.50;;;13.98
67515;BMP280;60646;55.802;37.032;2023-10-13T02:25:16;98369.28;;;13.85
67515;BMP280;60646;55.802;37.032;2023-10-13T02:28:04;98401.00;;;14.02
67515;BMP280;60646;55.802;37.032;2023-10-13T02:30:44;98413.88;;;14.11
67515;BMP280;60646;55.802;37.032;2023-10-13T02:33:13;98413.72;;;14.09
67515;BMP280;60646;55.802;37.032;2023-10-13T02:35:40;98396.34;;;13.87
67515;BMP280;60646;55.802;37.032;2023-10-13T02:38:20;98394.34;;;13.80
67515;BMP280;60646;55.802;37.032;2023-10-13T02:40:54;98419.44;;;13.90
67515;BMP280;60646;55.802;37.032;2023-10-13T02:43:22;98421.56;;;13.92
67515;BMP280;60646;55.802;37.032;2023-10-13T02:45:54;98414.75;;;13.91
67515;BMP280;60646;55.802;37.032;2023-10-13T02:48:25;98438.78;;;13.96
67515;BMP280;60646;55.802;37.032;2023-10-13T02:51:07;98447.72;;;13.99
67515;BMP280;60646;55.802;37.032;2023-10-13T02:53:42;98421.91;;;13.88
67515;BMP280;60646;55.802;37.032;2023-10-13T02:56:12;98435.34;;;13.88
67515;BMP280;60646;55.802;37.032;2023-10-13T02:58:40;98416.03;;;13.82
67515;BMP280;60646;55.802;37.032;2023-10-13T03:01:11;98426.56;;;13.88
67515;BMP280;60646;55.802;37.032;2023-10-13T03:03:47;98429.44;;;13.90
67515;BMP280;60646;55.802;37.032;2023-10-13T03:06:16;98447.72;;;13.99
67515;BMP280;60646;55.802;37.032;2023-10-13T03:08:43;98428.00;;;13.81
67515;BMP280;60646;55.802;37.032;2023-10-13T03:11:10;98422.59;;;13.74
67515;BMP280;60646;55.802;37.032;2023-10-13T03:13:37;98429.94;;;13.73
67515;BMP280;60646;55.802;37.032;2023-10-13T03:16:15;98443.94;;;13.87
67515;BMP280;60646;55.802;37.032;2023-10-13T03:19:00;98448.41;;;13.84
67515;BMP280;60646;55.802;37.032;2023-10-13T03:21:26;98433.00;;;13.77
67515;BMP280;60646;55.802;37.032;2023-10-13T03:23:58;98458.81;;;13.95
67515;BMP280;60646;55.802;37.032;2023-10-13T03:26:32;98448.41;;;13.84
67515;BMP280;60646;55.802;37.032;2023-10-13T03:29:21;98455.88;;;13.78
67515;BMP280;60646;55.802;37.032;2023-10-13T03:31:49;98448.72;;;13.73
67515;BMP280;60646;55.802;37.032;2023-10-13T03:34:32;98449.78;;;13.70
67515;BMP280;60646;55.802;37.032;2023-10-13T03:37:00;98465.00;;;13.75
67515;BMP280;60646;55.802;37.032;2023-10-13T03:39:36;98476.31;;;13.81
67515;BMP280;60646;55.802;37.032;2023-10-13T03:42:02;98479.47;;;13.72
67515;BMP280;60646;55.802;37.032;2023-10-13T03:44:31;98481.97;;;13.70
67515;BMP280;60646;55.802;37.032;2023-10-13T03:46:57;98509.06;;;13.87
67515;BMP280;60646;55.802;37.032;2023-10-13T03:49:30;98472.66;;;13.64
67515;BMP280;60646;55.802;37.032;2023-10-13T03:51:56;98470.72;;;13.64
67515;BMP280;60646;55.802;37.032;2023-10-13T03:54:23;98486.13;;;13.71
67515;BMP280;60646;55.802;37.032;2023-10-13T03:56:48;98493.78;;;13.67
67515;BMP280;60646;55.802;37.032;2023-10-13T03:59:18;98480.31;;;13.60
67515;BMP280;60646;55.802;37.032;2023-10-13T04:01:45;98498.78;;;13.63
67515;BMP280;60646;55.802;37.032;2023-10-13T04:04:28;98512.38;;;13.65
67515;BMP280;60646;55.802;37.032;2023-10-13T04:07:12;98527.41;;;13.68
67515;BMP280;60646;55.802;37.032;2023-10-13T04:09:39;98544.28;;;13.76
67515;BMP280;60646;55.802;37.032;2023-10-13T04:12:14;98512.09;;;13.48
67515;BMP280;60646;55.802;37.032;2023-10-13T04:14:58;98528.03;;;13.53
67515;BMP280;60646;55.802;37.032;2023-10-13T04:17:33;98527.53;;;13.55
67515;BMP280;60646;55.802;37.032;2023-10-13T04:20:09;98540.41;;;13.57
67515;BMP280;60646;55.802;37.032;2023-10-13T04:22:43;98552.06;;;13.59
67515;BMP280;60646;55.802;37.032;2023-10-13T04:25:17;98556.34;;;13.62
67515;BMP280;60646;55.802;37.032;2023-10-13T04:28:05;98569.13;;;13.69
67515;BMP280;60646;55.802;37.032;2023-10-13T04:30:44;98577.53;;;13.73
67515;BMP280;60646;55.802;37.032;2023-10-13T04:36:08;98581.47;;;13.72
67515;BMP280;60646;55.802;37.032;2023-10-13T04:38:58;98563.84;;;13.56
67515;BMP280;60646;55.802;37.032;2023-10-13T04:41:32;98558.78;;;13.45
67515;BMP280;60646;55.802;37.032;2023-10-13T04:44:12;98580.59;;;13.49
67515;BMP280;60646;55.802;37.032;2023-10-13T04:46:58;98605.25;;;13.68
67515;BMP280;60646;55.802;37.032;2023-10-13T04:49:26;98615.75;;;13.66
67515;BMP280;60646;55.802;37.032;2023-10-13T04:51:58;98627.94;;;13.67
67515;BMP280;60646;55.802;37.032;2023-10-13T04:54:26;98599.16;;;13.47
67515;BMP280;60646;55.802;37.032;2023-10-13T04:56:54;98615.03;;;13.58
67515;BMP280;60646;55.802;37.032;2023-10-13T04:59:47;98618.06;;;13.62
67515;BMP280;60646;55.802;37.032;2023-10-13T05:02:33;98600.28;;;13.51
67515;BMP280;60646;55.802;37.032;2023-10-13T05:05:02;98623.94;;;13.61
67515;BMP280;60646;55.802;37.032;2023-10-13T05:07:32;98623.25;;;13.60
67515;BMP280;60646;55.802;37.032;2023-10-13T05:10:17;98643.38;;;13.74
67515;BMP280;60646;55.802;37.032;2023-10-13T05:13:02;98631.50;;;13.62
67515;BMP280;60646;55.802;37.032;2023-10-13T05:15:47;98662.38;;;13.76
67515;BMP280;60646;55.802;37.032;2023-10-13T05:18:32;98686.69;;;13.78
67515;BMP280;60646;55.802;37.032;2023-10-13T05:21:17;98649.03;;;13.63
67515;BMP280;60646;55.802;37.032;2023-10-13T05:24:02;98661.28;;;13.72
67515;BMP280;60646;55.802;37.032;2023-10-13T05:26:46;98664.84;;;13.74
67515;BMP280;60646;55.802;37.032;2023-10-13T05:29:31;98677.38;;;13.79
67515;BMP280;60646;55.802;37.032;2023-10-13T05:32:15;98683.47;;;13.80
67515;BMP280;60646;55.802;37.032;2023-10-13T05:34:59;98689.97;;;13.84
67515;BMP280;60646;55.802;37.032;2023-10-13T05:37:43;98690.16;;;13.86
67515;BMP280;60646;55.802;37.032;2023-10-13T05:40:28;98706.19;;;13.99
67515;BMP280;60646;55.802;37.032;2023-10-13T05:43:13;98702.53;;;13.89
67515;BMP280;60646;55.802;37.032;2023-10-13T05:46:02;98705.94;;;13.90
67515;BMP280;60646;55.802;37.032;2023-10-13T05:48:48;98701.88;;;13.96
67515;BMP280;60646;55.802;37.032;2023-10-13T05:51:29;98720.94;;;14.13
67515;BMP280;60646;55.802;37.032;2023-10-13T05:53:59;98705.81;;;13.95
67515;BMP280;60646;55.802;37.032;2023-10-13T05:56:48;98746.41;;;14.20
67515;BMP280;60646;55.802;37.032;2023-10-13T05:59:36;98751.22;;;14.22
67515;BMP280;60646;55.802;37.032;2023-10-13T06:02:24;98746.56;;;14.15
67515;BMP280;60646;55.802;37.032;2023-10-13T06:05:12;98752.09;;;14.17
67515;BMP280;60646;55.802;37.032;2023-10-13T06:07:57;98747.72;;;14.06
67515;BMP280;60646;55.802;37.032;2023-10-13T06:10:43;98755.47;;;14.09
67515;BMP280;60646;55.802;37.032;2023-10-13T06:13:28;98741.06;;;13.99
67515;BMP280;60646;55.802;37.032;2023-10-13T06:16:14;98771.47;;;14.23
67515;BMP280;60646;55.802;37.032;2023-10-13T06:18:59;98763.91;;;14.13
67515;BMP280;60646;55.802;37.032;2023-10-13T06:21:44;98777.56;;;14.23
67515;BMP280;60646;55.802;37.032;2023-10-13T06:24:29;98758.16;;;14.09
67515;BMP280;60646;55.802;37.032;2023-10-13T06:27:15;98787.78;;;14.25
67515;BMP280;60646;55.802;37.032;2023-10-13T06:29:59;98792.44;;;14.24
67515;BMP280;60646;55.802;37.032;2023-10-13T06:32:27;98776.13;;;14.15
67515;BMP280;60646;55.802;37.032;2023-10-13T06:34:53;98790.41;;;14.17
67515;BMP280;60646;55.802;37.032;2023-10-13T06:37:25;98779.63;;;14.09
67515;BMP280;60646;55.802;37.032;2023-10-13T06:40:00;98809.13;;;14.30
67515;BMP280;60646;55.802;37.032;2023-10-13T06:42:47;98782.13;;;14.07
67515;BMP280;60646;55.802;37.032;2023-10-13T06:45:12;98811.31;;;14.32
67515;BMP280;60646;55.802;37.032;2023-10-13T06:47:38;98788.09;;;14.13
67515;BMP280;60646;55.802;37.032;2023-10-13T06:50:14;98817.91;;;14.31
67515;BMP280;60646;55.802;37.032;2023-10-13T06:52:46;98822.06;;;14.32
67515;BMP280;60646;55.802;37.032;2023-10-13T06:55:20;98810.38;;;14.29
67515;BMP280;60646;55.802;37.032;2023-10-13T06:57:53;98813.78;;;14.30
67515;BMP280;60646;55.802;37.032;2023-10-13T07:00:19;98821.75;;;14.43
67515;BMP280;60646;55.802;37.032;2023-10-13T07:02:51;98840.19;;;14.67
67515;BMP280;60646;55.802;37.032;2023-10-13T07:05:18;98832.22;;;14.54
67515;BMP280;60646;55.802;37.032;2023-10-13T07:07:45;98819.84;;;14.51
67515;BMP280;60646;55.802;37.032;2023-10-13T07:10:13;98812.81;;;14.48
67515;BMP280;60646;55.802;37.032;2023-10-13T07:12:39;98858.72;;;14.78
67515;BMP280;60646;55.802;37.032;2023-10-13T07:15:10;98846.66;;;14.71
67515;BMP280;60646;55.802;37.032;2023-10-13T07:17:46;98874.34;;;14.87
67515;BMP280;60646;55.802;37.032;2023-10-13T07:20:40;98863.88;;;14.76
67515;BMP280;60646;55.802;37.032;2023-10-13T07:23:13;98857.63;;;14.81
67515;BMP280;60646;55.802;37.032;2023-10-13T07:25:54;98879.03;;;14.94
67515;BMP280;60646;55.802;37.032;2023-10-13T07:28:30;98867.47;;;14.78
67515;BMP280;60646;55.802;37.032;2023-10-13T07:31:03;98897.63;;;14.92
67515;BMP280;60646;55.802;37.032;2023-10-13T07:33:29;98880.94;;;14.86
67515;BMP280;60646;55.802;37.032;2023-10-13T07:38:27;98868.88;;;14.72
67515;BMP280;60646;55.802;37.032;2023-10-13T07:40:57;98889.31;;;14.75
67515;BMP280;60646;55.802;37.032;2023-10-13T07:43:32;98913.41;;;14.88
67515;BMP280;60646;55.802;37.032;2023-10-13T07:45:59;98897.09;;;14.86
67515;BMP280;60646;55.802;37.032;2023-10-13T07:48:32;98876.34;;;14.66
67515;BMP280;60646;55.802;37.032;2023-10-13T07:51:00;98922.91;;;14.89
67515;BMP280;60646;55.802;37.032;2023-10-13T07:53:30;98902.59;;;14.73
67515;BMP280;60646;55.802;37.032;2023-10-13T07:56:16;98920.69;;;14.80
67515;BMP280;60646;55.802;37.032;2023-10-13T07:58:45;98908.34;;;14.77
67515;BMP280;60646;55.802;37.032;2023-10-13T08:01:27;98927.44;;;14.94
67515;BMP280;60646;55.802;37.032;2023-10-13T08:03:54;98922.06;;;14.94
67515;BMP280;60646;55.802;37.032;2023-10-13T08:06:52;98917.72;;;14.91
67515;BMP280;60646;55.802;37.032;2023-10-13T08:09:27;98915.44;;;14.95
67515;BMP280;60646;55.802;37.032;2023-10-13T08:11:58;98948.34;;;15.16
67515;BMP280;60646;55.802;37.032;2023-10-13T08:14:24;98930.59;;;15.13
67515;BMP280;60646;55.802;37.032;2023-10-13T08:16:54;98946.91;;;15.15
67515;BMP280;60646;55.802;37.032;2023-10-13T08:19:27;98963.50;;;15.34
67515;BMP280;60646;55.802;37.032;2023-10-13T08:21:57;98973.59;;;15.42
67515;BMP280;60646;55.802;37.032;2023-10-13T08:24:25;98954.53;;;15.32
67515;BMP280;60646;55.802;37.032;2023-10-13T08:27:19;98939.09;;;15.32
67515;BMP280;60646;55.802;37.032;2023-10-13T08:30:01;98975.81;;;15.58
67515;BMP280;60646;55.802;37.032;2023-10-13T08:32:32;98977.56;;;15.56
67515;BMP280;60646;55.802;37.032;2023-10-13T08:34:59;99001.88;;;15.71
67515;BMP280;60646;55.802;37.032;2023-10-13T08:37:32;98999.53;;;15.75
67515;BMP280;60646;55.802;37.032;2023-10-13T08:40:01;98997.34;;;15.66
67515;BMP280;60646;55.802;37.032;2023-10-13T08:42:37;99009.50;;;15.95
67515;BMP280;60646;55.802;37.032;2023-10-13T08:47:54;99005.00;;;15.97
67515;BMP280;60646;55.802;37.032;2023-10-13T08:50:35;99020.47;;;16.04
67515;BMP280;60646;55.802;37.032;2023-10-13T08:53:18;99011.66;;;16.04
67515;BMP280;60646;55.802;37.032;2023-10-13T08:58:49;99015.63;;;16.11
67515;BMP280;60646;55.802;37.032;2023-10-13T09:01:37;99033.06;;;16.25
67515;BMP280;60646;55.802;37.032;2023-10-13T09:04:26;99019.41;;;16.15
67515;BMP280;60646;55.802;37.032;2023-10-13T09:07:03;99045.50;;;16.35
67515;BMP280;60646;55.802;37.032;2023-10-13T09:12:23;99040.28;;;16.37
67515;BMP280;60646;55.802;37.032;2023-10-13T09:15:01;99056.47;;;16.37
67515;BMP280;60646;55.802;37.032;2023-10-13T09:17:44;99047.81;;;16.39
67515;BMP280;60646;55.802;37.032;2023-10-13T09:20:16;99061.13;;;16.37
67515;BMP280;60646;55.802;37.032;2023-10-13T09:25:40;99060.44;;;16.36
67515;BMP280;60646;55.802;37.032;2023-10-13T09:28:29;99062.56;;;16.30
67515;BMP280;60646;55.802;37.032;2023-10-13T09:30:56;99068.69;;;16.38
67515;BMP280;60646;55.802;37.032;2023-10-13T09:33:28;99088.84;;;16.52
67515;BMP280;60646;55.802;37.032;2023-10-13T09:35:59;99062.94;;;16.42
67515;BMP280;60646;55.802;37.032;2023-10-13T09:38:29;99070.84;;;16.47
67515;BMP280;60646;55.802;37.032;2023-10-13T09:40:57;99073.03;;;16.49
67515;BMP280;60646;55.802;37.032;2023-10-13T09:43:27;99075.16;;;16.50
67515;BMP280;60646;55.802;37.032;2023-10-13T09:46:00;99097.28;;;16.56
67515;BMP280;60646;55.802;37.032;2023-10-13T09:48:36;99109.34;;;16.70
67515;BMP280;60646;55.802;37.032;2023-10-13T09:51:03;99088.66;;;16.58
67515;BMP280;60646;55.802;37.032;2023-10-13T09:53:36;99089.00;;;16.54
67515;BMP280;60646;55.802;37.032;2023-10-13T09:56:14;99122.28;;;16.80
67515;BMP280;60646;55.802;37.032;2023-10-13T09:59:10;99116.56;;;16.83
67515;BMP280;60646;55.802;37.032;2023-10-13T10:01:42;99121.41;;;16.85
67515;BMP280;60646;55.802;37.032;2023-10-13T10:04:19;99122.31;;;16.87
67515;BMP280;60646;55.802;37.032;2023-10-13T10:06:56;99110.63;;;16.92
67515;BMP280;60646;55.802;37.032;2023-10-13T10:09:30;99118.31;;;16.96
67515;BMP280;60646;55.802;37.032;2023-10-13T10:12:56;99125.38;;;16.99
67515;BMP280;60646;55.802;37.032;2023-10-13T10:15:35;99131.66;;;16.94
67515;BMP280;60646;55.802;37.032;2023-10-13T10:18:20;99111.50;;;16.80
67515;BMP280;60646;55.802;37.032;2023-10-13T10:20:51;99116.91;;;16.80
67515;BMP280;60646;55.802;37.032;2023-10-13T10:23:32;99142.25;;;16.92
67515;BMP280;60646;55.802;37.032;2023-10-13T10:26:13;99113.66;;;16.73
67515;BMP280;60646;55.802;37.032;2023-10-13T10:28:42;99114.75;;;16.78
67515;BMP280;60646;55.802;37.032;2023-10-13T10:31:10;99111.50;;;16.80
67515;BMP280;60646;55.802;37.032;2023-10-13T10:33:45;99141.38;;;16.97
67515;BMP280;60646;55.802;37.032;2023-10-13T10:36:31;99138.88;;;16.99
67515;BMP280;60646;55.802;37.032;2023-10-13T10:38:57;99137.97;;;16.89
67515;BMP280;60646;55.802;37.032;2023-10-13T10:41:30;99159.19;;;17.07
67515;BMP280;60646;55.802;37.032;2023-10-13T10:44:13;99133.09;;;16.87
67515;BMP280;60646;55.802;37.032;2023-10-13T10:46:42;99148.22;;;16.98
67515;BMP280;60646;55.802;37.032;2023-10-13T10:49:21;99176.28;;;17.17
67515;BMP280;60646;55.802;37.032;2023-10-13T10:51:59;99182.78;;;17.22
67515;BMP280;60646;55.802;37.032;2023-10-13T10:54:30;99181.50;;;17.23
67515;BMP280;60646;55.802;37.032;2023-10-13T10:57:00;99159.75;;;17.13
67515;BMP280;60646;55.802;37.032;2023-10-13T10:59:47;99164.94;;;17.19
67515;BMP280;60646;55.802;37.032;2023-10-13T11:02:17;99182.03;;;17.29
67515;BMP280;60646;55.802;37.032;2023-10-13T11:04:52;99168.00;;;17.15
67515;BMP280;60646;55.802;37.032;2023-10-13T11:07:25;99154.53;;;17.08
67515;BMP280;60646;55.802;37.032;2023-10-13T11:09:54;99191.75;;;17.32
67515;BMP280;60646;55.802;37.032;2023-10-13T11:12:33;99187.44;;;17.29
67515;BMP280;60646;55.802;37.032;2023-10-13T11:17:38;99187.06;;;17.25
67515;BMP280;60646;55.802;37.032;2023-10-13T11:20:24;99181.13;;;17.19
67515;BMP280;60646;55.802;37.032;2023-10-13T11:23:01;99187.28;;;17.27
67515;BMP280;60646;55.802;37.032;2023-10-13T11:25:32;99206.53;;;17.38
67515;BMP280;60646;55.802;37.032;2023-10-13T11:28:13;99216.94;;;17.50
67515;BMP280;60646;55.802;37.032;2023-10-13T11:31:00;99218.41;;;17.43
67515;BMP280;60646;55.802;37.032;2023-10-13T11:33:34;99205.78;;;17.30
67515;BMP280;60646;55.802;37.032;2023-10-13T11:36:03;99219.66;;;17.42
67515;BMP280;60646;55.802;37.032;2023-10-13T11:38:32;99207.78;;;17.30
67515;BMP280;60646;55.802;37.032;2023-10-13T11:41:14;99206.53;;;17.31
67515;BMP280;60646;55.802;37.032;2023-10-13T11:43:46;99227.41;;;17.53
67515;BMP280;60646;55.802;37.032;2023-10-13T11:46:21;99228.44;;;17.50
67515;BMP280;60646;55.802;37.032;2023-10-13T11:49:08;99225.59;;;17.48
67515;BMP280;60646;55.802;37.032;2023-10-13T11:51:35;99237.47;;;17.53
67515;BMP280;60646;55.802;37.032;2023-10-13T11:54:04;99188.53;;;17.26
67515;BMP280;60646;55.802;37.032;2023-10-13T11:56:30;99230.25;;;17.55
67515;BMP280;60646;55.802;37.032;2023-10-13T11:58:56;99207.78;;;17.37
67515;BMP280;60646;55.802;37.032;2023-10-13T12:01:27;99204.72;;;17.33
67515;BMP280;60646;55.802;37.032;2023-10-13T12:04:12;99204.53;;;17.39
67515;BMP280;60646;55.802;37.032;2023-10-13T12:06:56;99208.31;;;17.36
67515;BMP280;60646;55.802;37.032;2023-10-13T12:09:41;99230.63;;;17.52
67515;BMP280;60646;55.802;37.032;2023-10-13T12:12:25;99213.00;;;17.43
67515;BMP280;60646;55.802;37.032;2023-10-13T12:14:52;99238.22;;;17.53
67515;BMP280;60646;55.802;37.032;2023-10-13T12:17:25;99226.84;;;17.47
67515;BMP280;60646;55.802;37.032;2023-10-13T12:20:02;99227.38;;;17.45
67515;BMP280;60646;55.802;37.032;2023-10-13T12:22:44;99218.41;;;17.43
67515;BMP280;60646;55.802;37.032;2023-10-13T12:25:21;99230.97;;;17.56
67515;BMP280;60646;55.802;37.032;2023-10-13T12:28:01;99219.13;;;17.43
67515;BMP280;60646;55.802;37.032;2023-10-13T12:30:45;99239.81;;;17.56
67515;BMP280;60646;55.802;37.032;2023-10-13T12:33:15;99236.00;;;17.59
67515;BMP280;60646;55.802;37.032;2023-10-13T12:38:52;99230.66;;;17.44
67515;BMP280;60646;55.802;37.032;2023-10-13T12:45:08;99267.00;;;17.58
67515;BMP280;60646;55.802;37.032;2023-10-13T12:47:52;99243.06;;;17.47
67515;BMP280;60646;55.802;37.032;2023-10-13T12:50:38;99255.09;;;17.46
67515;BMP280;60646;55.802;37.032;2023-10-13T12:53:28;99257.81;;;17.46
67515;BMP280;60646;55.802;37.032;2023-10-13T12:55:56;99259.97;;;17.48
67515;BMP280;60646;55.802;37.032;2023-10-13T12:58:22;99253.84;;;17.39
67515;BMP280;60646;55.802;37.032;2023-10-13T13:00:53;99272.41;;;17.43
67515;BMP280;60646;55.802;37.032;2023-10-13T13:03:34;99274.22;;;17.40
67515;BMP280;60646;55.802;37.032;2023-10-13T13:06:00;99286.47;;;17.49
67515;BMP280;60646;55.802;37.032;2023-10-13T13:08:33;99271.50;;;17.33
67515;BMP280;60646;55.802;37.032;2023-10-13T13:11:10;99279.94;;;17.37
67515;BMP280;60646;55.802;37.032;2023-10-13T13:13:36;99250.97;;;17.15
67515;BMP280;60646;55.802;37.032;2023-10-13T13:16:03;99292.03;;;17.43
67515;BMP280;60646;55.802;37.032;2023-10-13T13:18:29;99278.34;;;17.34
67515;BMP280;60646;55.802;37.032;2023-10-13T13:20:55;99277.44;;;17.31
67515;BMP280;60646;55.802;37.032;2023-10-13T13:23:22;99260.16;;;17.19
67515;BMP280;60646;55.802;37.032;2023-10-13T13:25:52;99290.75;;;17.37
67515;BMP280;60646;55.802;37.032;2023-10-13T13:28:30;99280.31;;;17.26
67515;BMP280;60646;55.802;37.032;2023-10-13T13:31:03;99263.19;;;17.16
67515;BMP280;60646;55.802;37.032;2023-10-13T13:33:39;99306.94;;;17.37
67515;BMP280;60646;55.802;37.032;2023-10-13T13:36:13;99296.50;;;17.26
67515;BMP280;60646;55.802;37.032;2023-10-13T13:38:42;99297.03;;;17.17
67515;BMP280;60646;55.802;37.032;2023-10-13T13:41:15;99287.84;;;17.12
67515;BMP280;60646;55.802;37.032;2023-10-13T13:43:50;99317.03;;;17.29
67515;BMP280;60646;55.802;37.032;2023-10-13T13:46:16;99316.09;;;17.19
67515;BMP280;60646;55.802;37.032;2023-10-13T13:48:45;99303.69;;;17.08
67515;BMP280;60646;55.802;37.032;2023-10-13T13:51:14;99332.50;;;17.21
67515;BMP280;60646;55.802;37.032;2023-10-13T13:53:44;99317.38;;;17.18
67515;BMP280;60646;55.802;37.032;2023-10-13T13:56:16;99311.94;;;17.03
67515;BMP280;60646;55.802;37.032;2023-10-13T13:58:47;99337.69;;;17.19
67515;BMP280;60646;55.802;37.032;2023-10-13T14:01:13;99322.00;;;17.02
67515;BMP280;60646;55.802;37.032;2023-10-13T14:03:49;99335.28;;;17.00
67515;BMP280;60646;55.802;37.032;2023-10-13T14:06:20;99338.19;;;16.95
67515;BMP280;60646;55.802;37.032;2023-10-13T14:08:52;99326.63;;;16.87
67515;BMP280;60646;55.802;37.032;2023-10-13T14:11:22;99356.16;;;16.92
67515;BMP280;60646;55.802;37.032;2023-10-13T14:13:51;99347.84;;;16.83
67515;BMP280;60646;55.802;37.032;2023-10-13T14:16:23;99361.91;;;16.89
67515;BMP280;60646;55.802;37.032;2023-10-13T14:18:50;99341.66;;;16.74
67515;BMP280;60646;55.802;37.032;2023-10-13T14:21:18;99367.06;;;16.79
67515;BMP280;60646;55.802;37.032;2023-10-13T14:23:51;99368.84;;;16.77
67515;BMP280;60646;55.802;37.032;2023-10-13T14:26:21;99351.00;;;16.66
67515;BMP280;60646;55.802;37.032;2023-10-13T14:28:53;99371.34;;;16.74
67515;BMP280;60646;55.802;37.032;2023-10-13T14:31:31;99383.41;;;16.73
67515;BMP280;60646;55.802;37.032;2023-10-13T14:34:00;99368.19;;;16.55
67515;BMP280;60646;55.802;37.032;2023-10-13T14:36:27;99389.28;;;16.64
67515;BMP280;60646;55.802;37.032;2023-10-13T14:39:01;99377.53;;;16.54
67515;BMP280;60646;55.802;37.032;2023-10-13T14:41:28;99392.66;;;16.57
67515;BMP280;60646;55.802;37.032;2023-10-13T14:43:56;99403.09;;;16.53
67515;BMP280;60646;55.802;37.032;2023-10-13T14:46:31;99386.59;;;16.36
67515;BMP280;60646;55.802;37.032;2023-10-13T14:48:57;99384.25;;;16.33
67515;BMP280;60646;55.802;37.032;2023-10-13T14:51:28;99382.16;;;16.18
67515;BMP280;60646;55.802;37.032;2023-10-13T14:53:55;99411.19;;;16.33
67515;BMP280;60646;55.802;37.032;2023-10-13T14:56:26;99390.22;;;16.18
67515;BMP280;60646;55.802;37.032;2023-10-13T14:58:54;99411.84;;;16.26
67515;BMP280;60646;55.802;37.032;2023-10-13T15:01:21;99416.13;;;16.21
67515;BMP280;60646;55.802;37.032;2023-10-13T15:03:49;99388.28;;;15.98